createdAt,value
2022-09-01T00:00:15.693Z,19.17
2022-09-01T00:01:55.462Z,19.17
2022-09-01T00:03:35.241Z,19.18
2022-09-01T00:05:14.992Z,19.15
2022-09-01T00:06:54.754Z,19.15
2022-09-01T00:08:34.516Z,19.12
2022-09-01T00:10:14.299Z,19.14
2022-09-01T00:11:54.045Z,19.12
2022-09-01T00:13:33.818Z,19.09
2022-09-01T00:15:13.580Z,19.08
2022-09-01T00:16:53.349Z,19.07
2022-09-01T00:18:33.111Z,19.08
2022-09-01T00:20:12.881Z,19.04
2022-09-01T00:21:52.638Z,19.06
2022-09-01T00:23:32.412Z,19.03
2022-09-01T00:25:12.168Z,19.01
2022-09-01T00:26:51.928Z,19.01
2022-09-01T00:28:31.703Z,19
2022-09-01T00:30:11.459Z,19
2022-09-01T00:31:51.225Z,18.98
2022-09-01T00:35:10.762Z,18.95
2022-09-01T00:36:50.508Z,18.96
2022-09-01T00:38:30.279Z,18.94
2022-09-01T00:40:10.048Z,18.94
2022-09-01T00:41:49.842Z,18.94
2022-09-01T00:43:29.589Z,18.92
2022-09-01T00:45:09.365Z,18.9
2022-09-01T00:46:49.114Z,18.9
2022-09-01T00:48:28.864Z,18.87
2022-09-01T00:50:08.629Z,18.87
2022-09-01T00:51:48.408Z,18.86
2022-09-01T00:55:07.919Z,18.85
2022-09-01T00:56:47.688Z,18.85
2022-09-01T00:58:27.446Z,18.82
2022-09-01T01:00:07.229Z,18.83
2022-09-01T01:01:46.986Z,18.79
2022-09-01T01:03:26.755Z,18.81
2022-09-01T01:05:06.516Z,18.79
2022-09-01T01:06:46.287Z,18.78
2022-09-01T01:08:26.041Z,18.76
2022-09-01T01:10:05.816Z,18.77
2022-09-01T01:11:45.567Z,18.75
2022-09-01T01:13:25.334Z,18.75
2022-09-01T01:15:05.103Z,18.73
2022-09-01T01:16:44.876Z,18.71
2022-09-01T01:18:24.619Z,18.71
2022-09-01T01:20:04.402Z,18.71
2022-09-01T01:21:44.159Z,18.7
2022-09-01T01:23:23.921Z,18.7
2022-09-01T01:25:03.681Z,18.67
2022-09-01T01:26:43.455Z,18.67
2022-09-01T01:28:23.204Z,18.66
2022-09-01T01:30:02.991Z,18.65
2022-09-01T01:31:42.740Z,18.66
2022-09-01T01:35:02.277Z,18.62
2022-09-01T01:36:42.043Z,18.62
2022-09-01T01:38:21.815Z,18.61
2022-09-01T01:40:01.571Z,18.6
2022-09-01T01:41:41.359Z,18.59
2022-09-01T01:43:21.105Z,18.57
2022-09-01T01:45:00.860Z,18.58
2022-09-01T01:46:40.630Z,18.58
2022-09-01T01:48:20.389Z,18.57
2022-09-01T01:51:39.914Z,18.53
2022-09-01T01:53:19.678Z,18.54
2022-09-01T01:54:59.453Z,18.53
2022-09-01T01:56:39.211Z,18.52
2022-09-01T01:58:18.976Z,18.52
2022-09-01T01:59:58.754Z,18.51
2022-09-01T02:01:38.514Z,18.48
2022-09-01T02:03:18.262Z,18.48
2022-09-01T02:04:58.039Z,18.48
2022-09-01T02:06:37.824Z,18.45
2022-09-01T02:08:17.556Z,18.45
2022-09-01T02:11:37.093Z,18.45
2022-09-01T02:13:16.878Z,18.44
2022-09-01T02:14:56.613Z,18.44
2022-09-01T02:16:36.385Z,18.42
2022-09-01T02:18:16.147Z,18.41
2022-09-01T02:19:55.908Z,18.4
2022-09-01T02:21:35.678Z,18.37
2022-09-01T02:24:55.200Z,18.37
2022-09-01T02:26:34.981Z,18.35
2022-09-01T02:28:14.741Z,18.36
2022-09-01T02:29:54.492Z,18.34
2022-09-01T02:31:34.263Z,18.35
2022-09-01T02:34:53.803Z,18.29
2022-09-01T02:36:33.557Z,18.31
2022-09-01T02:38:13.327Z,18.31
2022-09-01T02:39:53.086Z,18.29
2022-09-01T02:41:32.847Z,18.28
2022-09-01T02:43:12.627Z,18.26
2022-09-01T02:44:52.395Z,18.26
2022-09-01T02:46:32.145Z,18.25
2022-09-01T02:48:11.903Z,18.24
2022-09-01T02:49:51.669Z,18.24
2022-09-01T02:51:31.441Z,18.23
2022-09-01T02:53:11.197Z,18.2
2022-09-01T02:54:50.964Z,18.2
2022-09-01T02:56:30.728Z,18.19
2022-09-01T02:58:10.500Z,18.18
2022-09-01T02:59:50.266Z,18.16
2022-09-01T03:01:30.017Z,18.17
2022-09-01T03:04:49.560Z,18.15
2022-09-01T03:06:29.308Z,18.12
2022-09-01T03:08:09.080Z,18.12
2022-09-01T03:09:48.860Z,18.1
2022-09-01T03:11:28.612Z,18.09
2022-09-01T03:13:08.382Z,18.08
2022-09-01T03:14:48.148Z,18.09
2022-09-01T03:16:27.914Z,18.04
2022-09-01T03:18:07.667Z,18.07
2022-09-01T03:19:47.434Z,18.04
2022-09-01T03:21:27.198Z,18.04
2022-09-01T03:24:46.720Z,18.01
2022-09-01T03:26:26.495Z,18
2022-09-01T03:28:06.248Z,17.96
2022-09-01T03:29:46.035Z,17.98
2022-09-01T03:31:25.783Z,17.95
2022-09-01T03:33:05.556Z,17.94
2022-09-01T03:34:45.307Z,17.94
2022-09-01T03:36:25.096Z,17.91
2022-09-01T03:38:04.850Z,17.91
2022-09-01T03:39:44.626Z,17.87
2022-09-01T03:41:24.373Z,17.86
2022-09-01T03:43:04.138Z,17.87
2022-09-01T03:44:43.911Z,17.85
2022-09-01T03:46:23.675Z,17.82
2022-09-01T03:48:03.430Z,17.79
2022-09-01T03:49:43.188Z,17.79
2022-09-01T03:51:22.962Z,17.78
2022-09-01T03:53:02.748Z,17.75
2022-09-01T03:54:42.484Z,17.75
2022-09-01T03:56:22.261Z,17.73
2022-09-01T03:58:02.027Z,17.73
2022-09-01T03:59:41.794Z,17.74
2022-09-01T04:01:21.551Z,17.76
2022-09-01T04:03:01.309Z,17.76
2022-09-01T04:04:41.067Z,17.78
2022-09-01T04:06:20.874Z,17.78
2022-09-01T04:08:00.609Z,17.79
2022-09-01T04:09:40.369Z,17.81
2022-09-01T04:11:20.135Z,17.82
2022-09-01T04:14:39.666Z,17.79
2022-09-01T04:16:19.421Z,17.83
2022-09-01T04:17:59.198Z,17.81
2022-09-01T04:19:38.953Z,17.79
2022-09-01T04:21:18.712Z,17.81
2022-09-01T04:22:58.469Z,17.81
2022-09-01T04:24:38.238Z,17.82
2022-09-01T04:26:18.002Z,17.79
2022-09-01T04:27:57.769Z,17.82
2022-09-01T04:29:37.531Z,17.81
2022-09-01T04:31:17.316Z,17.82
2022-09-01T04:32:57.083Z,17.79
2022-09-01T04:34:36.870Z,17.79
2022-09-01T04:36:16.604Z,17.78
2022-09-01T04:37:56.373Z,17.79
2022-09-01T04:39:36.132Z,17.78
2022-09-01T04:41:15.897Z,17.76
2022-09-01T04:42:55.674Z,17.74
2022-09-01T04:44:35.441Z,17.73
2022-09-01T04:46:15.208Z,17.74
2022-09-01T04:47:54.967Z,17.73
2022-09-01T04:49:34.737Z,17.73
2022-09-01T04:51:14.491Z,17.73
2022-09-01T04:52:54.262Z,17.69
2022-09-01T04:54:34.038Z,17.68
2022-09-01T04:56:13.809Z,17.67
2022-09-01T04:57:53.563Z,17.68
2022-09-01T04:59:33.340Z,17.68
2022-09-01T05:01:13.103Z,17.68
2022-09-01T05:02:52.868Z,17.64
2022-09-01T05:04:32.629Z,17.62
2022-09-01T05:07:52.162Z,17.62
2022-09-01T05:09:31.930Z,17.62
2022-09-01T05:11:11.688Z,17.6
2022-09-01T05:14:31.234Z,17.6
2022-09-01T05:16:11.005Z,17.6
2022-09-01T05:17:50.768Z,17.56
2022-09-01T05:19:30.544Z,17.57
2022-09-01T05:21:10.309Z,17.57
2022-09-01T05:22:50.070Z,17.54
2022-09-01T05:24:29.865Z,17.54
2022-09-01T05:26:09.624Z,17.52
2022-09-01T05:27:49.399Z,17.52
2022-09-01T05:29:29.156Z,17.53
2022-09-01T05:31:08.939Z,17.48
2022-09-01T05:32:48.708Z,17.49
2022-09-01T05:34:28.464Z,17.49
2022-09-01T05:36:08.236Z,17.49
2022-09-01T05:37:48.021Z,17.45
2022-09-01T05:39:27.788Z,17.48
2022-09-01T05:41:07.548Z,17.45
2022-09-01T05:42:47.327Z,17.45
2022-09-01T05:44:27.088Z,17.46
2022-09-01T05:46:06.873Z,17.45
2022-09-01T05:47:46.642Z,17.48
2022-09-01T05:49:26.412Z,17.5
2022-09-01T05:51:06.182Z,17.5
2022-09-01T05:52:45.952Z,17.49
2022-09-01T05:54:25.719Z,17.48
2022-09-01T05:56:05.492Z,17.49
2022-09-01T05:57:45.263Z,17.51
2022-09-01T05:59:25.028Z,17.54
2022-09-01T06:01:04.784Z,17.6
2022-09-01T06:04:24.322Z,17.67
2022-09-01T06:06:04.102Z,17.75
2022-09-01T06:07:43.870Z,17.82
2022-09-01T06:09:23.642Z,17.9
2022-09-01T06:11:03.408Z,17.96
2022-09-01T06:12:43.189Z,18.01
2022-09-01T06:14:22.946Z,18.06
2022-09-01T06:16:02.715Z,18.14
2022-09-01T06:17:42.487Z,18.21
2022-09-01T06:19:22.270Z,18.28
2022-09-01T06:21:02.040Z,18.33
2022-09-01T06:22:41.806Z,18.37
2022-09-01T06:24:21.575Z,18.43
2022-09-01T06:26:01.343Z,18.5
2022-09-01T06:27:41.114Z,18.54
2022-09-01T06:29:20.891Z,18.61
2022-09-01T06:31:00.661Z,18.66
2022-09-01T06:32:40.421Z,18.69
2022-09-01T06:34:20.200Z,18.78
2022-09-01T06:35:59.967Z,18.78
2022-09-01T06:37:39.736Z,18.86
2022-09-01T06:39:19.511Z,18.9
2022-09-01T06:40:59.270Z,18.96
2022-09-01T06:42:39.066Z,19.02
2022-09-01T06:44:18.808Z,19.07
2022-09-01T06:45:58.592Z,19.12
2022-09-01T06:47:38.350Z,19.18
2022-09-01T06:49:18.136Z,19.25
2022-09-01T06:50:57.924Z,19.28
2022-09-01T06:54:17.508Z,19.37
2022-09-01T06:55:57.213Z,19.45
2022-09-01T06:57:36.978Z,19.48
2022-09-01T06:59:16.818Z,19.54
2022-09-01T07:00:56.524Z,19.6
2022-09-01T07:02:36.319Z,19.64
2022-09-01T07:04:16.053Z,19.69
2022-09-01T07:05:55.822Z,19.74
2022-09-01T07:07:35.631Z,19.81
2022-09-01T07:09:15.375Z,19.89
2022-09-01T07:10:55.199Z,19.92
2022-09-01T07:14:14.727Z,20.04
2022-09-01T07:15:54.489Z,20.09
2022-09-01T07:17:34.219Z,20.12
2022-09-01T07:19:14.018Z,20.17
2022-09-01T07:20:53.798Z,20.25
2022-09-01T07:22:33.539Z,20.29
2022-09-01T07:24:13.348Z,20.33
2022-09-01T07:25:53.068Z,20.39
2022-09-01T07:27:32.872Z,20.45
2022-09-01T07:29:12.624Z,20.46
2022-09-01T07:30:52.395Z,20.55
2022-09-01T07:32:32.170Z,20.58
2022-09-01T07:34:11.933Z,20.64
2022-09-01T07:35:51.696Z,20.72
2022-09-01T07:37:31.481Z,20.74
2022-09-01T07:39:11.251Z,20.8
2022-09-01T07:40:51.008Z,20.87
2022-09-01T07:42:30.775Z,20.87
2022-09-01T07:44:10.555Z,20.94
2022-09-01T07:45:50.319Z,21
2022-09-01T07:47:30.095Z,21.06
2022-09-01T07:49:09.872Z,21.09
2022-09-01T07:50:49.636Z,21.15
2022-09-01T07:54:09.177Z,21.22
2022-09-01T07:55:48.959Z,21.26
2022-09-01T07:57:28.727Z,21.29
2022-09-01T07:59:08.501Z,21.33
2022-09-01T08:00:48.264Z,21.39
2022-09-01T08:02:28.032Z,21.42
2022-09-01T08:04:07.794Z,21.47
2022-09-01T08:05:47.570Z,21.5
2022-09-01T08:07:27.347Z,21.56
2022-09-01T08:09:07.109Z,21.62
2022-09-01T08:10:46.884Z,21.63
2022-09-01T08:12:26.657Z,21.7
2022-09-01T08:14:06.436Z,21.7
2022-09-01T08:15:46.194Z,21.75
2022-09-01T08:17:25.961Z,21.78
2022-09-01T08:19:05.733Z,21.82
2022-09-01T08:20:45.501Z,21.85
2022-09-01T08:22:25.290Z,21.88
2022-09-01T08:24:05.047Z,21.94
2022-09-01T08:25:44.817Z,21.99
2022-09-01T08:27:24.585Z,22.01
2022-09-01T08:29:04.386Z,22.05
2022-09-01T08:30:44.133Z,22.09
2022-09-01T08:32:23.905Z,22.12
2022-09-01T08:34:03.664Z,22.14
2022-09-01T08:35:43.437Z,22.19
2022-09-01T08:37:23.218Z,22.21
2022-09-01T08:39:02.980Z,22.27
2022-09-01T08:40:42.743Z,22.28
2022-09-01T08:44:02.313Z,22.36
2022-09-01T08:45:42.061Z,22.37
2022-09-01T08:47:21.833Z,22.41
2022-09-01T08:49:01.611Z,22.46
2022-09-01T08:50:41.365Z,22.5
2022-09-01T08:52:21.143Z,22.53
2022-09-01T08:54:00.915Z,22.55
2022-09-01T08:55:40.686Z,22.57
2022-09-01T08:57:20.478Z,22.61
2022-09-01T08:59:00.216Z,22.64
2022-09-01T09:00:39.998Z,22.69
2022-09-01T09:03:59.538Z,22.75
2022-09-01T09:05:39.323Z,22.77
2022-09-01T09:07:19.086Z,22.8
2022-09-01T09:08:58.840Z,22.74
2022-09-01T09:10:38.627Z,22.67
2022-09-01T09:12:18.394Z,22.6
2022-09-01T09:13:58.170Z,22.54
2022-09-01T09:15:37.935Z,22.48
2022-09-01T09:17:17.692Z,22.41
2022-09-01T09:18:57.470Z,22.38
2022-09-01T09:20:37.244Z,22.35
2022-09-01T09:22:17.051Z,22.36
2022-09-01T09:23:56.769Z,22.39
2022-09-01T09:25:36.548Z,22.41
2022-09-01T09:27:16.325Z,22.47
2022-09-01T09:28:56.099Z,22.48
2022-09-01T09:30:35.862Z,22.52
2022-09-01T09:33:55.402Z,22.55
2022-09-01T09:35:35.170Z,22.58
2022-09-01T09:37:14.934Z,22.65
2022-09-01T09:38:54.709Z,22.67
2022-09-01T09:40:34.486Z,22.69
2022-09-01T09:42:14.264Z,22.7
2022-09-01T09:43:54.016Z,22.72
2022-09-01T09:45:33.784Z,22.75
2022-09-01T09:47:13.579Z,22.77
2022-09-01T09:48:53.337Z,22.79
2022-09-01T09:50:33.111Z,22.86
2022-09-01T09:52:12.880Z,22.88
2022-09-01T09:53:52.658Z,22.91
2022-09-01T09:55:32.425Z,22.93
2022-09-01T09:57:12.228Z,22.94
2022-09-01T09:58:51.945Z,22.97
2022-09-01T10:00:31.723Z,22.99
2022-09-01T10:03:51.291Z,23.04
2022-09-01T10:05:31.033Z,23.06
2022-09-01T10:07:10.829Z,23.12
2022-09-01T10:08:50.564Z,23.12
2022-09-01T10:10:30.344Z,23.17
2022-09-01T10:12:10.157Z,23.2
2022-09-01T10:13:49.898Z,23.2
2022-09-01T10:15:29.677Z,23.23
2022-09-01T10:17:09.428Z,23.24
2022-09-01T10:18:49.242Z,23.25
2022-09-01T10:20:29.025Z,23.3
2022-09-01T10:23:48.570Z,23.33
2022-09-01T10:25:28.314Z,23.38
2022-09-01T10:27:08.063Z,23.42
2022-09-01T10:28:47.813Z,23.41
2022-09-01T10:30:27.656Z,23.45
2022-09-01T10:32:07.417Z,23.44
2022-09-01T10:33:47.188Z,23.47
2022-09-01T10:35:26.907Z,23.49
2022-09-01T10:37:06.762Z,23.51
2022-09-01T10:38:46.521Z,23.53
2022-09-01T10:40:26.283Z,23.57
2022-09-01T10:43:45.746Z,23.6
2022-09-01T10:45:25.580Z,23.59
2022-09-01T10:47:05.398Z,23.6
2022-09-01T10:48:45.145Z,23.62
2022-09-01T10:50:24.911Z,23.64
2022-09-01T10:52:04.658Z,23.65
2022-09-01T10:53:44.408Z,23.71
2022-09-01T10:57:03.933Z,23.72
2022-09-01T10:58:43.695Z,23.75
2022-09-01T11:00:23.544Z,23.78
2022-09-01T11:02:03.304Z,23.79
2022-09-01T11:03:43.047Z,23.84
2022-09-01T11:05:22.860Z,23.86
2022-09-01T11:07:02.615Z,23.89
2022-09-01T11:08:42.344Z,23.91
2022-09-01T11:15:21.504Z,24.02
2022-09-01T11:17:01.198Z,24.02
2022-09-01T11:18:41.016Z,24.05
2022-09-01T11:20:20.740Z,24.06
2022-09-01T11:23:40.307Z,24.06
2022-09-01T11:25:20.022Z,24.06
2022-09-01T11:26:59.870Z,24.06
2022-09-01T11:28:39.585Z,24.06
2022-09-01T11:33:38.954Z,24.09
2022-09-01T11:35:18.745Z,24.1
2022-09-01T11:36:58.433Z,24.11
2022-09-01T11:38:38.192Z,24.11
2022-09-01T11:40:18.026Z,24.14
2022-09-01T11:43:37.567Z,24.14
2022-09-01T11:45:17.316Z,24.16
2022-09-01T11:46:57.084Z,24.16
2022-09-01T11:48:36.856Z,24.17
2022-09-01T11:50:16.614Z,24.19
2022-09-01T11:53:36.157Z,24.21
2022-09-01T11:55:15.929Z,24.19
2022-09-01T11:56:55.692Z,24.2
2022-09-01T11:58:35.433Z,24.24
2022-09-01T12:00:15.183Z,24.21
2022-09-01T12:03:34.801Z,24.25
2022-09-01T12:05:14.554Z,24.24
2022-09-01T12:06:54.277Z,24.24
2022-09-01T12:08:34.048Z,24.26
2022-09-01T12:10:13.823Z,24.25
2022-09-01T12:13:33.394Z,24.26
2022-09-01T12:15:13.128Z,24.26
2022-09-01T12:16:52.917Z,24.27
2022-09-01T12:18:32.666Z,24.28
2022-09-01T12:20:12.443Z,24.27
2022-09-01T12:21:52.265Z,24.28
2022-09-01T12:23:32.038Z,24.29
2022-09-01T12:25:11.830Z,24.27
2022-09-01T12:26:51.548Z,24.3
2022-09-01T12:28:31.305Z,24.29
2022-09-01T12:30:11.095Z,24.32
2022-09-01T12:33:30.603Z,24.33
2022-09-01T12:36:50.171Z,24.33
2022-09-01T12:38:29.959Z,24.32
2022-09-01T12:40:09.728Z,24.32
2022-09-01T12:43:29.262Z,24.32
2022-09-01T12:45:09.013Z,24.33
2022-09-01T12:46:48.772Z,24.32
2022-09-01T12:48:28.599Z,24.36
2022-09-01T12:50:08.323Z,24.37
2022-09-01T12:51:48.084Z,24.36
2022-09-01T12:53:27.859Z,24.36
2022-09-01T12:55:07.625Z,24.37
2022-09-01T12:56:47.395Z,24.37
2022-09-01T13:00:06.938Z,24.39
2022-09-01T13:03:26.537Z,24.41
2022-09-01T13:05:06.243Z,24.42
2022-09-01T13:06:46.030Z,24.41
2022-09-01T13:08:25.783Z,24.46
2022-09-01T13:10:05.553Z,24.45
2022-09-01T13:11:45.329Z,24.44
2022-09-01T13:13:25.100Z,24.46
2022-09-01T13:15:04.899Z,24.47
2022-09-01T13:16:44.656Z,24.5
2022-09-01T13:18:24.418Z,24.5
2022-09-01T13:20:04.179Z,24.5
2022-09-01T13:21:43.942Z,24.5
2022-09-01T13:23:23.769Z,24.53
2022-09-01T13:25:03.476Z,24.54
2022-09-01T13:26:43.280Z,24.54
2022-09-01T13:28:23.069Z,24.53
2022-09-01T13:30:02.874Z,24.54
2022-09-01T13:31:42.563Z,24.53
2022-09-01T13:33:22.328Z,24.55
2022-09-01T13:35:02.107Z,24.57
2022-09-01T13:36:41.887Z,24.58
2022-09-01T13:38:21.659Z,24.58
2022-09-01T13:40:01.430Z,24.59
2022-09-01T13:41:41.292Z,24.59
2022-09-01T13:43:21.061Z,24.62
2022-09-01T13:45:00.740Z,24.62
2022-09-01T13:46:40.516Z,24.63
2022-09-01T13:48:20.289Z,24.65
2022-09-01T13:50:00.057Z,24.64
2022-09-01T13:51:39.807Z,24.65
2022-09-01T13:53:19.590Z,24.67
2022-09-01T13:54:59.368Z,24.67
2022-09-01T13:56:39.138Z,24.69
2022-09-01T13:58:18.900Z,24.68
2022-09-01T13:59:58.667Z,24.68
2022-09-01T14:01:38.447Z,24.71
2022-09-01T14:03:18.284Z,24.74
2022-09-01T14:04:57.984Z,24.72
2022-09-01T14:06:37.753Z,24.74
2022-09-01T14:08:17.536Z,24.76
2022-09-01T14:09:57.296Z,24.76
2022-09-01T14:11:37.098Z,24.75
2022-09-01T14:13:16.943Z,24.77
2022-09-01T14:14:56.592Z,24.79
2022-09-01T14:16:36.368Z,24.77
2022-09-01T14:18:16.138Z,24.79
2022-09-01T14:19:55.910Z,24.8
2022-09-01T14:21:35.721Z,24.79
2022-09-01T14:23:15.483Z,24.83
2022-09-01T14:24:55.223Z,24.82
2022-09-01T14:26:35.005Z,24.82
2022-09-01T14:28:14.826Z,24.84
2022-09-01T14:29:54.627Z,24.85
2022-09-01T14:31:34.295Z,24.86
2022-09-01T14:33:14.074Z,24.85
2022-09-01T14:34:53.836Z,24.84
2022-09-01T14:36:33.614Z,24.89
2022-09-01T14:38:13.402Z,24.86
2022-09-01T14:39:53.186Z,24.87
2022-09-01T14:41:33.008Z,24.87
2022-09-01T14:43:12.717Z,24.87
2022-09-01T14:44:52.479Z,24.88
2022-09-01T14:46:32.237Z,24.88
2022-09-01T14:48:12.030Z,24.88
2022-09-01T14:49:51.823Z,24.89
2022-09-01T14:51:31.548Z,24.89
2022-09-01T14:53:11.349Z,24.9
2022-09-01T14:54:51.088Z,24.93
2022-09-01T14:56:30.906Z,24.92
2022-09-01T14:58:10.629Z,24.91
2022-09-01T14:59:50.433Z,24.92
2022-09-01T15:01:30.175Z,24.92
2022-09-01T15:03:09.945Z,24.91
2022-09-01T15:04:49.770Z,24.93
2022-09-01T15:06:29.490Z,24.96
2022-09-01T15:08:09.255Z,24.95
2022-09-01T15:09:49.023Z,24.97
2022-09-01T15:11:28.805Z,24.98
2022-09-01T15:13:08.582Z,24.98
2022-09-01T15:14:48.364Z,24.97
2022-09-01T15:16:28.111Z,24.96
2022-09-01T15:18:07.912Z,24.98
2022-09-01T15:19:47.673Z,25.01
2022-09-01T15:21:27.418Z,25.02
2022-09-01T15:23:07.190Z,25.02
2022-09-01T15:24:46.956Z,25.01
2022-09-01T15:26:26.742Z,25.06
2022-09-01T15:28:06.514Z,25.07
2022-09-01T15:29:46.287Z,25.06
2022-09-01T15:31:26.049Z,25.06
2022-09-01T15:33:05.839Z,25.07
2022-09-01T15:36:25.355Z,25.07
2022-09-01T15:38:05.131Z,25.08
2022-09-01T15:39:44.889Z,25.11
2022-09-01T15:41:24.660Z,25.12
2022-09-01T15:43:04.466Z,25.12
2022-09-01T15:44:44.208Z,25.12
2022-09-01T15:46:23.976Z,25.14
2022-09-01T15:48:03.742Z,25.14
2022-09-01T15:49:43.519Z,25.14
2022-09-01T15:51:23.308Z,25.16
2022-09-01T15:53:03.079Z,25.18
2022-09-01T15:54:42.853Z,25.17
2022-09-01T15:56:22.611Z,25.19
2022-09-01T15:58:02.360Z,25.22
2022-09-01T15:59:42.159Z,25.18
2022-09-01T16:01:21.900Z,25.2
2022-09-01T16:03:01.679Z,25.21
2022-09-01T16:04:41.470Z,25.19
2022-09-01T16:06:21.222Z,25.22
2022-09-01T16:08:01.016Z,25.22
2022-09-01T16:09:40.773Z,25.21
2022-09-01T16:11:20.537Z,25.22
2022-09-01T16:13:00.302Z,25.24
2022-09-01T16:14:40.077Z,25.27
2022-09-01T16:17:59.614Z,25.31
2022-09-01T16:19:39.399Z,25.32
2022-09-01T16:21:19.153Z,25.35
2022-09-01T16:22:58.913Z,25.37
2022-09-01T16:26:18.461Z,25.41
2022-09-01T16:27:58.242Z,25.44
2022-09-01T16:29:38.000Z,25.47
2022-09-01T16:31:17.818Z,25.48
2022-09-01T16:34:37.324Z,25.49
2022-09-01T16:36:17.082Z,25.5
2022-09-01T16:37:56.859Z,25.5
2022-09-01T16:39:36.688Z,25.51
2022-09-01T16:42:56.181Z,25.5
2022-09-01T16:44:35.932Z,25.51
2022-09-01T16:46:15.703Z,25.55
2022-09-01T16:47:55.478Z,25.52
2022-09-01T16:49:35.319Z,25.51
2022-09-01T16:52:54.788Z,25.49
2022-09-01T16:54:34.593Z,25.46
2022-09-01T16:56:14.329Z,25.47
2022-09-01T16:57:54.112Z,25.46
2022-09-01T16:59:33.875Z,25.42
2022-09-01T17:01:13.672Z,25.44
2022-09-01T17:02:53.469Z,25.44
2022-09-01T17:04:33.279Z,25.42
2022-09-01T17:06:12.949Z,25.41
2022-09-01T17:07:52.733Z,25.39
2022-09-01T17:09:32.507Z,25.38
2022-09-01T17:11:12.322Z,25.36
2022-09-01T17:12:52.035Z,25.36
2022-09-01T17:14:31.815Z,25.33
2022-09-01T17:16:11.646Z,25.3
2022-09-01T17:17:51.405Z,25.28
2022-09-01T17:19:31.153Z,25.27
2022-09-01T17:22:50.672Z,25.24
2022-09-01T17:24:30.436Z,25.21
2022-09-01T17:26:10.198Z,25.22
2022-09-01T17:27:49.969Z,25.2
2022-09-01T17:29:29.727Z,25.2
2022-09-01T17:31:09.515Z,25.17
2022-09-01T17:32:49.266Z,25.16
2022-09-01T17:34:29.054Z,25.14
2022-09-01T17:36:08.811Z,25.1
2022-09-01T17:37:48.590Z,25.12
2022-09-01T17:39:28.364Z,25.08
2022-09-01T17:42:47.909Z,25.02
2022-09-01T17:44:27.668Z,24.98
2022-09-01T17:46:07.442Z,24.88
2022-09-01T17:47:47.220Z,24.85
2022-09-01T17:49:26.964Z,24.81
2022-09-01T17:51:06.787Z,24.8
2022-09-01T17:52:46.506Z,24.77
2022-09-01T17:54:26.273Z,24.72
2022-09-01T17:56:06.059Z,24.68
2022-09-01T17:57:45.810Z,24.66
2022-09-01T17:59:25.571Z,24.6
2022-09-01T18:02:45.114Z,24.54
2022-09-01T18:04:24.890Z,24.46
2022-09-01T18:06:04.649Z,24.45
2022-09-01T18:07:44.424Z,24.41
2022-09-01T18:09:24.173Z,24.37
2022-09-01T18:12:43.713Z,24.32
2022-09-01T18:14:23.479Z,24.29
2022-09-01T18:16:03.239Z,24.23
2022-09-01T18:17:43.005Z,24.21
2022-09-01T18:19:22.784Z,24.19
2022-09-01T18:22:42.321Z,24.08
2022-09-01T18:24:22.083Z,24.04
2022-09-01T18:26:01.854Z,23.98
2022-09-01T18:27:41.628Z,23.91
2022-09-01T18:29:21.398Z,23.86
2022-09-01T18:31:01.162Z,23.8
2022-09-01T18:32:40.921Z,23.73
2022-09-01T18:34:20.691Z,23.7
2022-09-01T18:36:00.459Z,23.63
2022-09-01T18:37:40.222Z,23.58
2022-09-01T18:39:19.981Z,23.53
2022-09-01T18:40:59.755Z,23.48
2022-09-01T18:42:39.533Z,23.45
2022-09-01T18:44:19.292Z,23.4
2022-09-01T18:45:59.061Z,23.33
2022-09-01T18:47:38.864Z,23.28
2022-09-01T18:49:18.601Z,23.24
2022-09-01T18:52:38.122Z,23.15
2022-09-01T18:54:17.893Z,23.11
2022-09-01T18:55:57.662Z,23.06
2022-09-01T18:57:37.439Z,23.03
2022-09-01T18:59:17.195Z,22.97
2022-09-01T19:04:16.506Z,22.84
2022-09-01T19:05:56.265Z,22.8
2022-09-01T19:07:36.045Z,22.75
2022-09-01T19:09:15.800Z,22.73
2022-09-01T19:10:55.567Z,22.67
2022-09-01T19:12:35.348Z,22.63
2022-09-01T19:14:15.123Z,22.59
2022-09-01T19:15:54.875Z,22.56
2022-09-01T19:17:34.697Z,22.53
2022-09-01T19:19:14.408Z,22.49
2022-09-01T19:20:54.182Z,22.43
2022-09-01T19:22:33.941Z,22.41
2022-09-01T19:24:13.746Z,22.36
2022-09-01T19:25:53.489Z,22.32
2022-09-01T19:27:33.254Z,22.27
2022-09-01T19:29:13.015Z,22.24
2022-09-01T19:30:52.796Z,22.21
2022-09-01T19:32:32.600Z,22.18
2022-09-01T19:34:12.328Z,22.15
2022-09-01T19:35:52.094Z,22.12
2022-09-01T19:37:31.870Z,22.05
2022-09-01T19:39:11.613Z,22.02
2022-09-01T19:42:31.166Z,21.97
2022-09-01T19:44:10.922Z,21.91
2022-09-01T19:45:50.703Z,21.9
2022-09-01T19:47:30.464Z,21.85
2022-09-01T19:49:10.225Z,21.81
2022-09-01T19:52:29.786Z,21.76
2022-09-01T19:54:09.535Z,21.71
2022-09-01T19:55:49.310Z,21.66
2022-09-01T19:57:29.075Z,21.64
2022-09-01T19:59:08.827Z,21.61
2022-09-01T20:00:48.601Z,21.56
2022-09-01T20:02:28.369Z,21.52
2022-09-01T20:04:08.134Z,21.49
2022-09-01T20:05:47.928Z,21.46
2022-09-01T20:07:27.699Z,21.44
2022-09-01T20:09:07.497Z,21.38
2022-09-01T20:12:26.989Z,21.34
2022-09-01T20:14:06.741Z,21.3
2022-09-01T20:15:46.522Z,21.27
2022-09-01T20:17:26.283Z,21.23
2022-09-01T20:19:06.038Z,21.2
2022-09-01T20:22:25.573Z,21.12
2022-09-01T20:24:05.383Z,21.09
2022-09-01T20:25:45.114Z,21.07
2022-09-01T20:27:24.880Z,21.04
2022-09-01T20:29:04.692Z,20.99
2022-09-01T20:32:24.247Z,20.95
2022-09-01T20:34:03.951Z,20.9
2022-09-01T20:35:43.730Z,20.87
2022-09-01T20:37:23.495Z,20.83
2022-09-01T20:39:03.257Z,20.82
2022-09-01T20:42:22.779Z,20.76
2022-09-01T20:44:02.556Z,20.73
2022-09-01T20:45:42.320Z,20.7
2022-09-01T20:47:22.109Z,20.66
2022-09-01T20:49:01.950Z,20.64
2022-09-01T20:52:21.414Z,20.58
2022-09-01T20:54:01.205Z,20.56
2022-09-01T20:55:40.924Z,20.51
2022-09-01T20:57:20.709Z,20.46
2022-09-01T20:59:00.468Z,20.44
2022-09-01T21:02:20.005Z,20.37
2022-09-01T21:03:59.764Z,20.36
2022-09-01T21:05:39.533Z,20.34
2022-09-01T21:07:19.308Z,20.31
2022-09-01T21:08:59.076Z,20.27
2022-09-01T21:13:58.361Z,20.2
2022-09-01T21:15:38.126Z,20.15
2022-09-01T21:17:17.900Z,20.12
2022-09-01T21:18:57.678Z,20.11
2022-09-01T21:22:17.200Z,20.04
2022-09-01T21:23:56.978Z,20
2022-09-01T21:25:36.739Z,19.98
2022-09-01T21:27:16.516Z,19.96
2022-09-01T21:28:56.276Z,19.92
2022-09-01T21:32:15.815Z,19.86
2022-09-01T21:33:55.615Z,19.85
2022-09-01T21:35:35.341Z,19.81
2022-09-01T21:37:15.138Z,19.78
2022-09-01T21:38:54.878Z,19.75
2022-09-01T21:42:14.445Z,19.7
2022-09-01T21:43:54.192Z,19.67
2022-09-01T21:45:34.008Z,19.66
2022-09-01T21:47:13.718Z,19.62
2022-09-01T21:48:53.526Z,19.59
2022-09-01T21:50:33.266Z,19.57
2022-09-01T21:52:13.041Z,19.54
2022-09-01T21:53:52.795Z,19.51
2022-09-01T21:55:32.555Z,19.49
2022-09-01T21:57:12.380Z,19.45
2022-09-01T21:58:52.090Z,19.45
2022-09-01T22:02:11.626Z,19.4
2022-09-01T22:05:31.161Z,19.34
2022-09-01T22:07:10.957Z,19.32
2022-09-01T22:08:50.721Z,19.29
2022-09-01T22:12:10.240Z,19.21
2022-09-01T22:13:50.037Z,19.2
2022-09-01T22:15:29.763Z,19.18
2022-09-01T22:17:09.538Z,19.17
2022-09-01T22:18:49.288Z,19.14
2022-09-01T22:22:08.834Z,19.08
2022-09-01T22:23:48.605Z,19.04
2022-09-01T22:25:28.364Z,19.04
2022-09-01T22:27:08.138Z,19
2022-09-01T22:28:47.908Z,19
2022-09-01T22:32:07.481Z,18.93
2022-09-01T22:33:47.204Z,18.91
2022-09-01T22:35:26.964Z,18.9
2022-09-01T22:37:06.760Z,18.86
2022-09-01T22:38:46.511Z,18.85
2022-09-01T22:40:26.276Z,18.82
2022-09-01T22:42:06.057Z,18.81
2022-09-01T22:43:45.820Z,18.76
2022-09-01T22:45:25.581Z,18.74
2022-09-01T22:47:05.356Z,18.74
2022-09-01T22:48:45.111Z,18.71
2022-09-01T22:52:04.710Z,18.67
2022-09-01T22:53:44.424Z,18.65
2022-09-01T22:55:24.180Z,18.61
2022-09-01T22:57:03.963Z,18.59
2022-09-01T22:58:43.710Z,18.56
2022-09-01T23:00:23.491Z,18.54
2022-09-01T23:02:03.247Z,18.54
2022-09-01T23:03:43.017Z,18.49
2022-09-01T23:05:22.811Z,18.46
2022-09-01T23:07:02.560Z,18.45
2022-09-01T23:08:42.328Z,18.45
2022-09-01T23:10:22.113Z,18.43
2022-09-01T23:12:01.871Z,18.41
2022-09-01T23:13:41.645Z,18.37
2022-09-01T23:15:21.381Z,18.35
2022-09-01T23:17:01.166Z,18.34
2022-09-01T23:18:40.984Z,18.31
2022-09-01T23:22:00.484Z,18.27
2022-09-01T23:23:40.240Z,18.25
2022-09-01T23:25:20.002Z,18.23
2022-09-01T23:26:59.760Z,18.21
2022-09-01T23:28:39.550Z,18.19